Time;durP1;ratioP1;P1;durP2;ratioP2;P2;SDS_P1;SDS_P2;PMS_P1;PMS_P2;Temp;Humidity;BMP_temperature;BMP_pressure;BME280_temperature;BME280_humidity;BME280_pressure;Samples;Min_cycle;Max_cycle;Signal;HPM_P1;HPM_P2
2022/10/09 07:44:43;;;;;;;7.13;3.90;;;9.30;99.90;;;;;;5075425;28;20520;-84
2022/10/09 07:47:09;;;;;;;10.40;3.73;;;9.20;99.90;;;;;;5072095;28;20199;-85
2022/10/09 07:49:35;;;;;;;9.73;4.27;;;9.30;99.90;;;;;;5071919;28;20176;-83
2022/10/09 07:52:00;;;;;;;4.80;3.37;;;9.30;99.90;;;;;;5073547;28;20178;-83
2022/10/09 07:54:26;;;;;;;6.57;3.33;;;9.40;99.90;;;;;;5073253;28;20656;-85
2022/10/09 07:56:52;;;;;;;5.23;3.70;;;9.40;99.90;;;;;;5075131;28;20551;-85
2022/10/09 07:59:17;;;;;;;4.70;3.60;;;9.40;99.90;;;;;;5075820;28;20311;-85
2022/10/09 08:01:43;;;;;;;8.20;3.77;;;9.50;99.90;;;;;;5076696;28;20188;-85
2022/10/09 08:04:09;;;;;;;7.20;3.27;;;9.50;99.90;;;;;;5075972;28;20201;-84
2022/10/09 08:06:35;;;;;;;3.47;3.10;;;9.60;99.90;;;;;;5075707;28;20190;-84
2022/10/09 08:09:02;;;;;;;4.47;3.00;;;9.80;99.90;;;;;;5074260;28;20219;-82
2022/10/09 08:11:29;;;;;;;8.50;3.40;;;9.90;99.90;;;;;;5071819;28;20278;-83
2022/10/09 08:13:55;;;;;;;7.87;3.17;;;10.00;99.90;;;;;;5073059;28;20201;-82
2022/10/09 08:16:23;;;;;;;4.50;3.03;;;10.20;99.90;;;;;;5071359;28;20243;-81
2022/10/09 08:18:52;;;;;;;9.40;3.33;;;10.20;99.90;;;;;;5072637;28;20704;-85
2022/10/09 08:21:18;;;;;;;6.43;3.60;;;10.30;99.90;;;;;;5072942;28;20629;-82
2022/10/09 08:23:44;;;;;;;5.80;3.30;;;10.40;99.90;;;;;;5071386;28;20219;-82
2022/10/09 08:26:19;;;;;;;6.80;3.00;;;10.50;99.90;;;;;;5072897;28;20234;-83
2022/10/09 08:28:50;;;;;;;9.80;3.50;;;10.60;99.90;;;;;;5050839;28;20178;-82
2022/10/09 08:31:16;;;;;;;3.90;3.07;;;10.70;99.90;;;;;;5063546;28;20624;-82
2022/10/09 08:33:42;;;;;;;5.50;3.30;;;10.60;99.90;;;;;;5071115;28;20179;-83
2022/10/09 08:36:10;;;;;;;5.67;3.27;;;10.60;99.90;;;;;;5072697;28;20236;-83
2022/10/09 08:38:36;;;;;;;5.03;3.17;;;10.60;99.90;;;;;;5072835;28;20181;-83
2022/10/09 08:41:35;;;;;;;6.30;3.10;;;10.50;99.90;;;;;;5062479;28;20666;-84
2022/10/09 08:44:05;;;;;;;7.43;3.83;;;10.50;99.90;;;;;;5053202;28;20221;-82
2022/10/09 08:46:35;;;;;;;7.13;3.43;;;10.50;99.90;;;;;;5062034;28;20206;-84
2022/10/09 08:49:03;;;;;;;6.60;3.33;;;10.60;99.90;;;;;;5066328;28;20540;-85
2022/10/09 08:51:34;;;;;;;8.43;3.63;;;10.60;99.90;;;;;;5070539;28;20174;-83
2022/10/09 08:54:23;;;;;;;5.63;3.43;;;10.60;99.90;;;;;;5055141;28;20514;-82
2022/10/09 08:56:51;;;;;;;12.30;3.53;;;10.60;99.90;;;;;;5043259;28;20190;-82
2022/10/09 08:59:17;;;;;;;9.40;4.00;;;10.60;99.90;;;;;;5066503;28;20253;-83
2022/10/09 09:01:47;;;;;;;8.47;5.80;;;10.60;99.90;;;;;;5058769;28;20204;-83
2022/10/09 09:04:46;;;;;;;6.60;3.80;;;10.70;99.90;;;;;;5060788;28;20189;-82
2022/10/09 09:07:44;;;;;;;7.17;3.83;;;10.70;99.90;;;;;;5062935;28;20195;-82
2022/10/09 09:10:15;;;;;;;17.57;5.20;;;10.60;99.90;;;;;;5067363;28;20181;-83
2022/10/09 09:13:05;;;;;;;6.40;3.60;;;10.70;99.90;;;;;;5038865;28;20189;-82
2022/10/09 09:15:45;;;;;;;7.30;4.30;;;10.60;99.90;;;;;;5052456;28;20216;-83
2022/10/09 09:18:24;;;;;;;7.13;3.80;;;10.60;99.90;;;;;;5051251;28;20178;-82
2022/10/09 09:21:10;;;;;;;9.33;3.77;;;10.70;99.90;;;;;;5038760;28;20182;-86
2022/10/09 09:23:41;;;;;;;5.93;3.90;;;10.60;99.90;;;;;;5053023;28;20567;-81
2022/10/09 09:26:16;;;;;;;10.47;4.50;;;10.60;99.90;;;;;;5055773;28;20306;-81
2022/10/09 09:28:43;;;;;;;8.17;3.87;;;10.60;99.90;;;;;;5057094;28;20189;-81
2022/10/09 09:31:14;;;;;;;10.53;4.20;;;10.60;99.90;;;;;;5037823;28;20260;-82
2022/10/09 09:33:55;;;;;;;7.20;4.70;;;10.60;99.90;;;;;;5049024;28;20185;-82
2022/10/09 10:06:27;;;;;;;7.30;5.23;;;11.60;99.90;;;;;;5136334;27;20757;-85
2022/10/09 10:09:10;;;;;;;11.40;4.50;;;11.70;99.90;;;;;;5132980;28;20195;-83
2022/10/09 10:11:41;;;;;;;7.27;4.70;;;11.80;99.90;;;;;;5113835;28;20205;-82
2022/10/09 10:14:08;;;;;;;7.13;4.30;;;11.80;99.90;;;;;;5116621;28;20202;-87
2022/10/09 10:16:37;;;;;;;9.87;5.03;;;11.80;99.90;;;;;;5132767;28;20666;-79
2022/10/09 10:19:05;;;;;;;5.53;4.27;;;11.80;99.90;;;;;;5133374;27;20202;-82
2022/10/09 10:21:40;;;;;;;6.00;4.13;;;11.80;99.90;;;;;;5134383;27;20261;-81
2022/10/09 10:24:12;;;;;;;5.77;4.13;;;11.80;99.90;;;;;;5134517;28;20272;-81
2022/10/09 10:26:42;;;;;;;6.37;4.13;;;11.90;99.90;;;;;;5113863;28;20194;-82
2022/10/09 10:29:23;;;;;;;6.23;4.23;;;12.00;99.90;;;;;;5114791;28;20183;-84
2022/10/09 10:31:53;;;;;;;7.60;4.20;;;12.10;99.90;;;;;;5114760;28;20178;-83
2022/10/09 10:34:31;;;;;;;6.57;4.30;;;12.20;99.90;;;;;;5113889;28;20206;-84
2022/10/09 10:37:12;;;;;;;7.40;4.17;;;12.40;99.90;;;;;;5146337;27;20205;-84
2022/10/09 10:39:48;;;;;;;5.03;4.10;;;12.50;99.90;;;;;;5155930;27;20178;-82
2022/10/09 10:42:24;;;;;;;5.57;3.80;;;12.60;99.90;;;;;;5154719;27;20158;-81
2022/10/09 10:45:06;;;;;;;9.67;3.97;;;12.60;99.90;;;;;;5154890;27;20270;-86
2022/10/09 10:47:38;;;;;;;6.07;3.83;;;12.60;99.90;;;;;;5143102;27;20188;-84
2022/10/09 10:50:11;;;;;;;5.27;4.20;;;12.80;99.90;;;;;;5111335;28;20520;-80
2022/10/09 10:53:02;;;;;;;6.63;4.10;;;12.80;99.90;;;;;;5112664;28;20625;-83
2022/10/09 10:55:48;;;;;;;6.77;3.63;;;12.90;99.90;;;;;;5132382;28;20175;-83
2022/10/09 10:58:25;;;;;;;10.00;4.90;;;13.00;99.90;;;;;;5135541;27;20541;-84
2022/10/09 11:01:37;;;;;;;7.23;4.30;;;12.90;99.90;;;;;;5137001;27;20159;-82
2022/10/09 11:04:35;;;;;;;6.87;4.43;;;12.80;99.90;;;;;;5113380;28;20183;-84
2022/10/09 11:07:15;;;;;;;4.73;3.63;;;12.80;99.90;;;;;;5134037;28;20237;-83
2022/10/09 11:10:01;;;;;;;6.53;4.40;;;12.70;99.90;;;;;;5136670;27;20166;-83
2022/10/09 11:12:41;;;;;;;3.90;3.37;;;12.80;99.90;;;;;;5135969;27;20183;-84
2022/10/09 11:15:36;;;;;;;11.33;3.70;;;12.90;99.90;;;;;;5132286;27;20202;-83
2022/10/09 11:18:29;;;;;;;5.60;4.10;;;13.10;99.90;;;;;;5122040;28;20183;-83
2022/10/09 11:21:07;;;;;;;4.63;3.77;;;13.20;99.90;;;;;;5107272;28;20185;-83
2022/10/09 11:24:20;;;;;;;9.03;3.63;;;13.50;99.90;;;;;;5108550;28;20183;-83
2022/10/09 11:27:09;;;;;;;4.50;3.77;;;13.70;99.90;;;;;;5077377;28;20247;-82
2022/10/09 11:29:49;;;;;;;5.53;3.03;;;13.80;99.90;;;;;;5120523;28;20559;-82
2022/10/09 11:32:26;;;;;;;4.33;3.07;;;13.90;99.90;;;;;;5121252;28;20229;-83
2022/10/09 11:35:02;;;;;;;5.00;3.70;;;14.00;99.90;;;;;;5123102;28;20160;-84
2022/10/09 11:37:35;;;;;;;5.60;4.50;;;14.10;99.90;;;;;;5107046;28;20562;-83
2022/10/09 11:40:15;;;;;;;6.67;3.63;;;14.10;99.90;;;;;;5102299;28;20633;-82
2022/10/09 11:42:42;;;;;;;5.77;3.67;;;14.10;99.90;;;;;;5111837;27;20179;-83
2022/10/09 11:45:29;;;;;;;6.37;3.77;;;14.00;99.90;;;;;;5130897;27;20200;-85
2022/10/09 11:48:10;;;;;;;5.23;4.23;;;13.70;99.90;;;;;;5101320;28;20199;-84
2022/10/09 11:50:39;;;;;;;5.20;4.00;;;13.60;99.90;;;;;;5100194;28;20207;-83
2022/10/09 11:53:13;;;;;;;10.50;3.57;;;13.60;99.90;;;;;;5112822;28;20184;-81
2022/10/09 11:55:41;;;;;;;4.73;3.87;;;13.60;99.90;;;;;;5127382;27;20175;-83
2022/10/09 11:58:23;;;;;;;8.80;3.73;;;13.50;99.90;;;;;;5127907;27;20175;-84
2022/10/09 12:00:52;;;;;;;5.23;3.33;;;13.50;99.90;;;;;;5113940;28;20204;-84
2022/10/09 12:03:34;;;;;;;5.47;3.63;;;13.50;99.90;;;;;;5104349;28;20199;-82
2022/10/09 12:06:16;;;;;;;4.07;3.30;;;13.40;99.90;;;;;;5099534;28;20303;-83
2022/10/09 12:09:02;;;;;;;3.80;3.13;;;13.30;99.90;;;;;;5101230;28;20172;-84
2022/10/09 12:11:29;;;;;;;4.53;3.47;;;13.30;99.90;;;;;;5106388;28;20201;-83
2022/10/09 12:14:00;;;;;;;4.87;3.77;;;13.30;99.90;;;;;;5111952;28;20662;-81
2022/10/09 12:16:42;;;;;;;4.30;3.20;;;13.30;99.90;;;;;;5120261;28;20200;-80
2022/10/09 12:19:13;;;;;;;5.23;3.67;;;13.20;99.90;;;;;;5108391;28;20167;-84
2022/10/09 12:21:50;;;;;;;7.47;3.60;;;13.20;99.90;;;;;;5103660;28;20172;-85
2022/10/09 12:24:20;;;;;;;7.80;4.07;;;13.20;99.90;;;;;;5100258;28;20184;-82
2022/10/09 12:26:47;;;;;;;5.27;3.57;;;13.10;99.90;;;;;;5113977;28;20195;-85
2022/10/09 12:29:23;;;;;;;4.67;3.50;;;13.30;99.90;;;;;;5129640;27;20171;-83
2022/10/09 12:31:51;;;;;;;6.27;4.03;;;13.50;99.90;;;;;;5130712;27;20192;-86
2022/10/09 12:34:28;;;;;;;6.30;4.50;;;13.70;99.90;;;;;;5113269;28;20240;-84
2022/10/09 12:37:14;;;;;;;6.23;3.67;;;13.90;99.90;;;;;;5103974;28;20218;-85
2022/10/09 12:39:41;;;;;;;5.57;3.90;;;13.90;99.90;;;;;;5098716;28;20614;-85
2022/10/09 12:42:16;;;;;;;4.80;3.57;;;13.90;99.90;;;;;;5103072;28;20180;-86
2022/10/09 12:44:44;;;;;;;3.77;3.40;;;13.80;99.90;;;;;;5098628;28;20195;-83
2022/10/09 12:47:29;;;;;;;4.40;3.73;;;13.60;99.90;;;;;;5098432;28;20196;-84
2022/10/09 12:50:17;;;;;;;4.90;4.00;;;13.60;99.90;;;;;;5099307;28;20592;-85
2022/10/09 12:53:00;;;;;;;5.77;4.23;;;13.50;99.90;;;;;;5120288;28;20239;-86
2022/10/09 12:55:30;;;;;;;6.70;4.90;;;13.40;99.90;;;;;;5111746;27;20193;-85
2022/10/09 12:58:14;;;;;;;8.67;4.20;;;13.30;99.90;;;;;;5119659;28;20195;-85
2022/10/09 13:00:40;;;;;;;7.50;4.50;;;13.20;99.90;;;;;;5104964;28;20233;-83
2022/10/09 13:03:17;;;;;;;6.87;5.23;;;13.20;99.90;;;;;;5096179;28;20539;-85
2022/10/09 13:05:43;;;;;;;6.43;4.03;;;13.20;99.90;;;;;;5096459;28;20693;-83
2022/10/09 13:08:37;;;;;;;5.53;4.03;;;13.30;99.90;;;;;;5096874;28;20171;-83
2022/10/09 13:11:22;;;;;;;6.40;4.80;;;13.20;99.90;;;;;;5095013;28;20191;-84
2022/10/09 13:13:53;;;;;;;8.37;5.33;;;13.10;99.90;;;;;;5097932;28;20638;-86
2022/10/09 13:16:20;;;;;;;6.37;4.33;;;13.00;99.90;;;;;;5099001;28;20241;-85
2022/10/09 13:19:00;;;;;;;7.20;5.00;;;12.90;99.90;;;;;;5097692;28;20241;-84
2022/10/09 13:21:29;;;;;;;7.20;5.07;;;12.80;99.90;;;;;;5099222;28;20176;-83
2022/10/09 13:23:55;;;;;;;6.17;5.17;;;12.70;99.90;;;;;;5108527;28;20199;-82
2022/10/09 13:26:29;;;;;;;6.87;4.60;;;12.70;99.90;;;;;;5118073;28;20227;-84
2022/10/09 13:28:57;;;;;;;6.60;5.50;;;12.60;99.90;;;;;;5119673;28;20168;-83
2022/10/09 13:31:23;;;;;;;7.33;5.43;;;12.60;99.90;;;;;;5118839;28;20167;-87
2022/10/09 13:33:49;;;;;;;9.07;5.43;;;12.60;99.90;;;;;;5116705;28;20225;-84
2022/10/09 13:36:17;;;;;;;5.67;4.77;;;12.50;99.90;;;;;;5116081;28;20290;-84
2022/10/09 13:38:44;;;;;;;6.60;5.27;;;12.50;99.90;;;;;;5117267;28;20183;-83
2022/10/09 13:41:18;;;;;;;5.23;4.60;;;12.50;99.90;;;;;;5105840;28;20630;-83
2022/10/09 13:43:44;;;;;;;8.83;5.40;;;12.50;99.90;;;;;;5097590;28;20171;-85
2022/10/09 13:46:10;;;;;;;7.30;5.93;;;12.40;99.90;;;;;;5109822;28;20783;-83
2022/10/09 13:48:36;;;;;;;7.57;5.70;;;12.40;99.90;;;;;;5119821;28;20203;-85
2022/10/09 13:51:04;;;;;;;8.40;5.63;;;12.40;99.90;;;;;;5115778;28;20542;-83
2022/10/09 13:53:30;;;;;;;6.63;5.73;;;12.40;99.90;;;;;;5106584;28;20192;-84
2022/10/09 13:55:56;;;;;;;8.37;6.13;;;12.40;99.90;;;;;;5094955;28;20238;-86
2022/10/09 13:58:22;;;;;;;5.97;5.30;;;12.30;99.90;;;;;;5094736;28;20179;-83
2022/10/09 14:00:48;;;;;;;7.83;6.03;;;12.30;99.90;;;;;;5105516;28;20183;-82
2022/10/09 14:03:15;;;;;;;10.33;6.17;;;12.30;99.90;;;;;;5111618;28;20699;-84
2022/10/09 14:05:42;;;;;;;7.83;5.87;;;12.20;99.90;;;;;;5095405;28;20253;-84
2022/10/09 14:08:08;;;;;;;8.17;6.70;;;12.20;99.90;;;;;;5096436;28;20239;-82
2022/10/09 14:10:33;;;;;;;9.07;6.83;;;12.20;99.90;;;;;;5103015;28;20203;-83
2022/10/09 14:12:59;;;;;;;10.50;6.80;;;12.20;99.90;;;;;;5117581;28;20175;-82
2022/10/09 14:15:25;;;;;;;9.40;7.27;;;12.20;99.90;;;;;;5099796;28;20191;-83
2022/10/09 14:17:51;;;;;;;9.17;6.90;;;12.20;99.90;;;;;;5096825;28;20203;-82
2022/10/09 14:20:16;;;;;;;7.30;6.00;;;12.10;99.90;;;;;;5104467;28;20175;-83
2022/10/09 14:22:42;;;;;;;8.03;6.13;;;12.10;99.90;;;;;;5133882;28;20171;-83
2022/10/09 14:25:08;;;;;;;7.53;6.03;;;12.10;99.90;;;;;;5134228;28;20232;-79
2022/10/09 14:27:34;;;;;;;9.93;7.17;;;12.10;99.90;;;;;;5134201;28;20203;-85
2022/10/09 14:30:00;;;;;;;7.37;6.17;;;12.10;99.90;;;;;;5117081;28;20184;-87
2022/10/09 14:32:26;;;;;;;12.47;6.83;;;12.10;99.90;;;;;;5128583;28;20180;-80
2022/10/09 14:34:52;;;;;;;10.67;7.17;;;12.00;99.90;;;;;;5135327;28;20721;-82
2022/10/09 14:37:18;;;;;;;9.00;6.97;;;12.00;99.90;;;;;;5153617;28;20205;-83
2022/10/09 14:39:45;;;;;;;8.87;6.20;;;11.90;99.90;;;;;;5154272;28;20179;-81
2022/10/09 14:42:11;;;;;;;9.60;6.70;;;11.90;99.90;;;;;;5132925;28;20199;-81
2022/10/09 14:44:37;;;;;;;9.23;6.40;;;11.90;99.90;;;;;;5118574;28;20211;-82
2022/10/09 14:47:02;;;;;;;11.17;6.60;;;11.90;99.90;;;;;;5117358;28;20196;-83
2022/10/09 14:49:28;;;;;;;7.63;6.70;;;11.90;99.90;;;;;;5099660;28;20182;-84
2022/10/09 14:51:54;;;;;;;10.47;7.27;;;11.90;99.90;;;;;;5116181;28;20176;-83
2022/10/09 14:54:20;;;;;;;8.93;7.03;;;11.90;99.90;;;;;;5116000;28;20187;-80
2022/10/09 14:56:45;;;;;;;9.17;7.33;;;11.90;99.90;;;;;;5109312;28;20317;-82
2022/10/09 14:59:11;;;;;;;9.57;6.97;;;11.90;99.90;;;;;;5120916;27;20175;-82
2022/10/09 15:01:37;;;;;;;9.27;6.90;;;11.90;99.90;;;;;;5103849;28;20203;-81
2022/10/09 15:04:04;;;;;;;11.10;7.40;;;11.90;99.90;;;;;;5102278;28;20222;-85
2022/10/09 15:06:31;;;;;;;7.63;6.83;;;11.90;99.90;;;;;;5102179;28;20218;-82
2022/10/09 15:09:01;;;;;;;10.33;7.20;;;11.90;99.90;;;;;;5115670;28;20184;-83
2022/10/09 15:11:28;;;;;;;10.53;8.30;;;11.80;99.90;;;;;;5116055;28;20259;-85
2022/10/09 15:13:54;;;;;;;11.60;7.13;;;11.80;99.90;;;;;;5119998;28;20183;-86
2022/10/09 15:16:21;;;;;;;10.90;7.23;;;11.80;99.90;;;;;;5120970;28;20183;-83
2022/10/09 15:18:52;;;;;;;9.30;6.93;;;11.70;99.90;;;;;;5120245;28;20182;-83
2022/10/09 15:21:21;;;;;;;8.63;6.80;;;11.70;99.90;;;;;;5099959;28;20241;-86
2022/10/09 15:23:47;;;;;;;13.37;7.80;;;11.70;99.90;;;;;;5106766;28;20182;-84
2022/10/09 15:26:14;;;;;;;9.23;7.17;;;11.70;99.90;;;;;;5104817;28;20253;-83
2022/10/09 15:28:41;;;;;;;11.23;8.33;;;11.70;99.90;;;;;;5104601;28;20176;-84
2022/10/09 15:31:34;;;;;;;9.43;7.60;;;11.60;99.90;;;;;;5118951;28;20176;-83
